sensor_id;sensor_type;location;lat;lon;timestamp;temperature;humidity
13652;DHT22;6899;51.546;6.912;2022-12-07T00:01:47;3.50;99.90
13652;DHT22;6899;51.546;6.912;2022-12-07T00:04:16;3.40;99.90
13652;DHT22;6899;51.546;6.912;2022-12-07T00:06:44;3.50;99.90
13652;DHT22;6899;51.546;6.912;2022-12-07T00:09:14;3.60;99.90
13652;DHT22;6899;51.546;6.912;2022-12-07T00:11:41;3.70;99.90
13652;DHT22;6899;51.546;6.912;2022-12-07T00:14:11;3.80;99.90
13652;DHT22;6899;51.546;6.912;2022-12-07T00:16:39;3.90;99.90
13652;DHT22;6899;51.546;6.912;2022-12-07T00:19:06;3.90;99.90
13652;DHT22;6899;51.546;6.912;2022-12-07T00:21:34;3.90;99.90
13652;DHT22;6899;51.546;6.912;2022-12-07T00:24:08;4.00;99.90
13652;DHT22;6899;51.546;6.912;2022-12-07T00:26:38;4.00;99.90
13652;DHT22;6899;51.546;6.912;2022-12-07T00:29:06;4.10;99.90
13652;DHT22;6899;51.546;6.912;2022-12-07T00:31:37;4.10;99.90
13652;DHT22;6899;51.546;6.912;2022-12-07T00:34:07;4.10;99.90
13652;DHT22;6899;51.546;6.912;2022-12-07T00:36:37;4.20;99.90
13652;DHT22;6899;51.546;6.912;2022-12-07T00:39:09;4.20;99.90
13652;DHT22;6899;51.546;6.912;2022-12-07T00:41:37;4.20;99.90
13652;DHT22;6899;51.546;6.912;2022-12-07T00:44:04;4.20;99.90
13652;DHT22;6899;51.546;6.912;2022-12-07T00:46:31;4.20;99.90
13652;DHT22;6899;51.546;6.912;2022-12-07T00:48:58;4.20;99.90
13652;DHT22;6899;51.546;6.912;2022-12-07T00:51:27;4.30;99.90
13652;DHT22;6899;51.546;6.912;2022-12-07T00:53:54;4.30;99.90
13652;DHT22;6899;51.546;6.912;2022-12-07T00:56:23;4.30;99.90
13652;DHT22;6899;51.546;6.912;2022-12-07T00:58:52;4.30;99.90
13652;DHT22;6899;51.546;6.912;2022-12-07T01:01:19;4.40;99.90
13652;DHT22;6899;51.546;6.912;2022-12-07T01:03:46;4.30;99.90
13652;DHT22;6899;51.546;6.912;2022-12-07T01:06:15;4.30;99.90
13652;DHT22;6899;51.546;6.912;2022-12-07T01:08:42;4.30;99.90
13652;DHT22;6899;51.546;6.912;2022-12-07T01:11:12;4.30;99.90
13652;DHT22;6899;51.546;6.912;2022-12-07T01:13:40;4.30;99.90
13652;DHT22;6899;51.546;6.912;2022-12-07T01:16:10;4.30;99.90
13652;DHT22;6899;51.546;6.912;2022-12-07T01:18:38;4.30;99.90
13652;DHT22;6899;51.546;6.912;2022-12-07T01:21:06;4.30;99.90
13652;DHT22;6899;51.546;6.912;2022-12-07T01:23:34;4.20;99.90
13652;DHT22;6899;51.546;6.912;2022-12-07T01:26:05;4.10;99.90
13652;DHT22;6899;51.546;6.912;2022-12-07T01:28:33;4.10;99.90
13652;DHT22;6899;51.546;6.912;2022-12-07T01:31:02;4.10;99.90
13652;DHT22;6899;51.546;6.912;2022-12-07T01:33:32;4.10;99.90
13652;DHT22;6899;51.546;6.912;2022-12-07T01:36:03;4.10;99.90
13652;DHT22;6899;51.546;6.912;2022-12-07T01:38:30;4.10;99.90
13652;DHT22;6899;51.546;6.912;2022-12-07T01:40:57;4.10;99.90
13652;DHT22;6899;51.546;6.912;2022-12-07T01:43:27;4.00;99.90
13652;DHT22;6899;51.546;6.912;2022-12-07T01:45:55;4.00;99.90
13652;DHT22;6899;51.546;6.912;2022-12-07T01:48:26;4.00;99.90
13652;DHT22;6899;51.546;6.912;2022-12-07T01:50:56;3.90;99.90
13652;DHT22;6899;51.546;6.912;2022-12-07T01:53:29;3.80;99.90
13652;DHT22;6899;51.546;6.912;2022-12-07T01:55:56;3.70;99.90
13652;DHT22;6899;51.546;6.912;2022-12-07T01:58:24;3.60;99.90
13652;DHT22;6899;51.546;6.912;2022-12-07T02:00:51;3.60;99.90
13652;DHT22;6899;51.546;6.912;2022-12-07T02:03:21;3.60;99.90
13652;DHT22;6899;51.546;6.912;2022-12-07T02:05:50;3.60;99.90
13652;DHT22;6899;51.546;6.912;2022-12-07T02:08:20;3.50;99.90
13652;DHT22;6899;51.546;6.912;2022-12-07T02:10:47;3.60;99.90
13652;DHT22;6899;51.546;6.912;2022-12-07T02:13:16;3.60;99.90
13652;DHT22;6899;51.546;6.912;2022-12-07T02:16:06;3.60;99.90
13652;DHT22;6899;51.546;6.912;2022-12-07T02:18:44;3.60;99.90
13652;DHT22;6899;51.546;6.912;2022-12-07T02:21:18;3.50;99.90
13652;DHT22;6899;51.546;6.912;2022-12-07T02:24:18;3.50;99.90
13652;DHT22;6899;51.546;6.912;2022-12-07T02:27:17;3.30;99.90
13652;DHT22;6899;51.546;6.912;2022-12-07T02:29:54;3.10;99.90
13652;DHT22;6899;51.546;6.912;2022-12-07T02:32:27;3.10;99.90
13652;DHT22;6899;51.546;6.912;2022-12-07T02:34:58;3.10;99.90
13652;DHT22;6899;51.546;6.912;2022-12-07T02:37:35;3.10;99.90
13652;DHT22;6899;51.546;6.912;2022-12-07T02:40:07;3.10;99.90
13652;DHT22;6899;51.546;6.912;2022-12-07T02:42:39;3.00;99.90
13652;DHT22;6899;51.546;6.912;2022-12-07T02:45:11;2.90;99.90
13652;DHT22;6899;51.546;6.912;2022-12-07T02:47:40;2.70;99.90
13652;DHT22;6899;51.546;6.912;2022-12-07T02:50:08;2.60;99.90
13652;DHT22;6899;51.546;6.912;2022-12-07T02:52:35;2.50;99.90
13652;DHT22;6899;51.546;6.912;2022-12-07T02:55:03;2.50;99.90
13652;DHT22;6899;51.546;6.912;2022-12-07T02:57:42;2.50;99.90
13652;DHT22;6899;51.546;6.912;2022-12-07T03:00:17;2.40;99.90
13652;DHT22;6899;51.546;6.912;2022-12-07T03:02:52;2.30;99.90
13652;DHT22;6899;51.546;6.912;2022-12-07T03:08:23;2.20;99.90
13652;DHT22;6899;51.546;6.912;2022-12-07T03:10:56;2.30;99.90
13652;DHT22;6899;51.546;6.912;2022-12-07T03:13:29;2.20;99.90
13652;DHT22;6899;51.546;6.912;2022-12-07T03:16:03;2.00;99.90
13652;DHT22;6899;51.546;6.912;2022-12-07T03:18:37;2.00;99.90
13652;DHT22;6899;51.546;6.912;2022-12-07T03:21:09;2.00;99.90
13652;DHT22;6899;51.546;6.912;2022-12-07T03:23:39;2.00;99.90
13652;DHT22;6899;51.546;6.912;2022-12-07T03:26:11;2.00;99.90
13652;DHT22;6899;51.546;6.912;2022-12-07T03:28:42;2.00;99.90
13652;DHT22;6899;51.546;6.912;2022-12-07T03:31:16;2.10;99.90
13652;DHT22;6899;51.546;6.912;2022-12-07T03:33:49;1.90;99.90
13652;DHT22;6899;51.546;6.912;2022-12-07T03:36:26;1.90;99.90
13652;DHT22;6899;51.546;6.912;2022-12-07T03:38:58;2.00;99.90
13652;DHT22;6899;51.546;6.912;2022-12-07T03:41:30;2.10;99.90
13652;DHT22;6899;51.546;6.912;2022-12-07T03:43:58;2.20;99.90
13652;DHT22;6899;51.546;6.912;2022-12-07T03:46:33;2.30;99.90
13652;DHT22;6899;51.546;6.912;2022-12-07T03:49:07;2.30;99.90
13652;DHT22;6899;51.546;6.912;2022-12-07T03:51:40;2.30;99.90
13652;DHT22;6899;51.546;6.912;2022-12-07T03:54:11;2.20;99.90
13652;DHT22;6899;51.546;6.912;2022-12-07T03:56:41;2.20;99.90
13652;DHT22;6899;51.546;6.912;2022-12-07T03:59:09;2.20;99.90
13652;DHT22;6899;51.546;6.912;2022-12-07T04:01:40;2.00;99.90
13652;DHT22;6899;51.546;6.912;2022-12-07T04:04:07;2.00;99.90
13652;DHT22;6899;51.546;6.912;2022-12-07T04:06:34;2.10;99.90
13652;DHT22;6899;51.546;6.912;2022-12-07T04:09:01;2.20;99.90
13652;DHT22;6899;51.546;6.912;2022-12-07T04:11:30;2.30;99.90
13652;DHT22;6899;51.546;6.912;2022-12-07T04:13:57;2.50;99.90
13652;DHT22;6899;51.546;6.912;2022-12-07T04:16:43;2.50;99.90
13652;DHT22;6899;51.546;6.912;2022-12-07T04:19:10;2.50;99.90
13652;DHT22;6899;51.546;6.912;2022-12-07T04:21:36;2.30;99.90
13652;DHT22;6899;51.546;6.912;2022-12-07T04:24:04;2.20;99.90
13652;DHT22;6899;51.546;6.912;2022-12-07T04:26:30;2.20;99.90
13652;DHT22;6899;51.546;6.912;2022-12-07T04:28:57;2.00;99.90
13652;DHT22;6899;51.546;6.912;2022-12-07T04:31:24;1.90;99.90
13652;DHT22;6899;51.546;6.912;2022-12-07T04:33:52;1.80;99.90
13652;DHT22;6899;51.546;6.912;2022-12-07T04:36:19;1.80;99.90
13652;DHT22;6899;51.546;6.912;2022-12-07T04:38:46;1.80;99.90
13652;DHT22;6899;51.546;6.912;2022-12-07T04:41:13;1.60;99.90
13652;DHT22;6899;51.546;6.912;2022-12-07T04:43:43;1.50;99.90
13652;DHT22;6899;51.546;6.912;2022-12-07T04:46:10;1.60;99.90
13652;DHT22;6899;51.546;6.912;2022-12-07T04:48:36;1.60;99.90
13652;DHT22;6899;51.546;6.912;2022-12-07T04:51:05;1.50;99.90
13652;DHT22;6899;51.546;6.912;2022-12-07T04:53:32;1.50;99.90
13652;DHT22;6899;51.546;6.912;2022-12-07T04:55:58;1.60;99.90
13652;DHT22;6899;51.546;6.912;2022-12-07T04:58:26;1.80;99.90
13652;DHT22;6899;51.546;6.912;2022-12-07T05:00:54;1.80;99.90
13652;DHT22;6899;51.546;6.912;2022-12-07T05:03:21;2.00;99.90
13652;DHT22;6899;51.546;6.912;2022-12-07T05:05:48;2.10;99.90
13652;DHT22;6899;51.546;6.912;2022-12-07T05:08:16;2.20;99.90
13652;DHT22;6899;51.546;6.912;2022-12-07T05:10:43;2.20;99.90
13652;DHT22;6899;51.546;6.912;2022-12-07T05:13:10;2.20;99.90
13652;DHT22;6899;51.546;6.912;2022-12-07T05:15:37;2.20;99.90
13652;DHT22;6899;51.546;6.912;2022-12-07T05:18:04;2.30;99.90
13652;DHT22;6899;51.546;6.912;2022-12-07T05:20:31;2.10;99.90
13652;DHT22;6899;51.546;6.912;2022-12-07T05:22:58;2.20;99.90
13652;DHT22;6899;51.546;6.912;2022-12-07T05:25:26;2.20;99.90
13652;DHT22;6899;51.546;6.912;2022-12-07T05:27:54;2.30;99.90
13652;DHT22;6899;51.546;6.912;2022-12-07T05:30:22;2.40;99.90
13652;DHT22;6899;51.546;6.912;2022-12-07T05:32:49;2.30;99.90
13652;DHT22;6899;51.546;6.912;2022-12-07T05:35:16;2.40;99.90
13652;DHT22;6899;51.546;6.912;2022-12-07T05:37:43;2.40;99.90
13652;DHT22;6899;51.546;6.912;2022-12-07T05:40:10;2.50;99.90
13652;DHT22;6899;51.546;6.912;2022-12-07T05:42:39;2.50;99.90
13652;DHT22;6899;51.546;6.912;2022-12-07T05:45:07;2.50;99.90
13652;DHT22;6899;51.546;6.912;2022-12-07T05:47:37;2.60;99.90
13652;DHT22;6899;51.546;6.912;2022-12-07T05:50:16;2.60;99.90
13652;DHT22;6899;51.546;6.912;2022-12-07T05:52:43;2.60;99.90
13652;DHT22;6899;51.546;6.912;2022-12-07T05:55:09;2.60;99.90
13652;DHT22;6899;51.546;6.912;2022-12-07T05:57:36;2.50;99.90
13652;DHT22;6899;51.546;6.912;2022-12-07T06:00:09;2.30;99.90
13652;DHT22;6899;51.546;6.912;2022-12-07T06:02:35;2.10;99.90
13652;DHT22;6899;51.546;6.912;2022-12-07T06:05:02;1.90;99.90
13652;DHT22;6899;51.546;6.912;2022-12-07T06:07:29;2.00;99.90
13652;DHT22;6899;51.546;6.912;2022-12-07T06:09:56;2.10;99.90
13652;DHT22;6899;51.546;6.912;2022-12-07T06:12:23;2.20;99.90
13652;DHT22;6899;51.546;6.912;2022-12-07T06:15:04;2.30;99.90
13652;DHT22;6899;51.546;6.912;2022-12-07T06:17:32;2.40;99.90
13652;DHT22;6899;51.546;6.912;2022-12-07T06:19:59;2.30;99.90
13652;DHT22;6899;51.546;6.912;2022-12-07T06:22:25;2.40;99.90
13652;DHT22;6899;51.546;6.912;2022-12-07T06:24:52;2.40;99.90
13652;DHT22;6899;51.546;6.912;2022-12-07T06:27:19;2.40;99.90
13652;DHT22;6899;51.546;6.912;2022-12-07T06:29:46;2.50;99.90
13652;DHT22;6899;51.546;6.912;2022-12-07T06:32:13;2.60;99.90
13652;DHT22;6899;51.546;6.912;2022-12-07T06:34:41;2.60;99.90
13652;DHT22;6899;51.546;6.912;2022-12-07T06:37:08;2.60;99.90
13652;DHT22;6899;51.546;6.912;2022-12-07T06:39:34;2.60;99.90
13652;DHT22;6899;51.546;6.912;2022-12-07T06:42:01;2.50;99.90
13652;DHT22;6899;51.546;6.912;2022-12-07T06:44:28;2.30;99.90
13652;DHT22;6899;51.546;6.912;2022-12-07T06:46:55;2.20;99.90
13652;DHT22;6899;51.546;6.912;2022-12-07T06:49:22;2.00;99.90
13652;DHT22;6899;51.546;6.912;2022-12-07T06:51:50;1.80;99.90
13652;DHT22;6899;51.546;6.912;2022-12-07T06:54:17;1.60;99.90
13652;DHT22;6899;51.546;6.912;2022-12-07T06:56:43;1.60;99.90
13652;DHT22;6899;51.546;6.912;2022-12-07T06:59:10;1.60;99.90
13652;DHT22;6899;51.546;6.912;2022-12-07T07:01:37;1.60;99.90
13652;DHT22;6899;51.546;6.912;2022-12-07T07:04:04;1.60;99.90
13652;DHT22;6899;51.546;6.912;2022-12-07T07:06:31;1.50;99.90
13652;DHT22;6899;51.546;6.912;2022-12-07T07:08:59;1.40;99.90
13652;DHT22;6899;51.546;6.912;2022-12-07T07:11:26;1.30;99.90
13652;DHT22;6899;51.546;6.912;2022-12-07T07:13:53;1.30;99.90
13652;DHT22;6899;51.546;6.912;2022-12-07T07:16:22;1.20;99.90
13652;DHT22;6899;51.546;6.912;2022-12-07T07:18:49;1.30;99.90
13652;DHT22;6899;51.546;6.912;2022-12-07T07:21:16;1.30;99.90
13652;DHT22;6899;51.546;6.912;2022-12-07T07:23:43;1.30;99.90
13652;DHT22;6899;51.546;6.912;2022-12-07T07:26:11;1.40;99.90
13652;DHT22;6899;51.546;6.912;2022-12-07T07:28:38;1.60;99.90
13652;DHT22;6899;51.546;6.912;2022-12-07T07:31:05;1.80;99.90
13652;DHT22;6899;51.546;6.912;2022-12-07T07:33:31;2.00;99.90
13652;DHT22;6899;51.546;6.912;2022-12-07T07:35:58;2.20;99.90
13652;DHT22;6899;51.546;6.912;2022-12-07T07:38:25;2.20;99.90
13652;DHT22;6899;51.546;6.912;2022-12-07T07:40:52;2.30;99.90
13652;DHT22;6899;51.546;6.912;2022-12-07T07:43:20;2.30;99.90
13652;DHT22;6899;51.546;6.912;2022-12-07T07:45:46;2.30;99.90
13652;DHT22;6899;51.546;6.912;2022-12-07T07:48:13;2.30;99.90
13652;DHT22;6899;51.546;6.912;2022-12-07T07:50:40;2.30;99.90
13652;DHT22;6899;51.546;6.912;2022-12-07T07:53:06;2.30;99.90
13652;DHT22;6899;51.546;6.912;2022-12-07T07:55:34;2.30;99.90
13652;DHT22;6899;51.546;6.912;2022-12-07T07:58:01;2.40;99.90
13652;DHT22;6899;51.546;6.912;2022-12-07T08:00:29;2.50;99.90
13652;DHT22;6899;51.546;6.912;2022-12-07T08:02:56;2.70;99.90
13652;DHT22;6899;51.546;6.912;2022-12-07T08:05:23;2.60;99.90
13652;DHT22;6899;51.546;6.912;2022-12-07T08:07:52;2.70;99.90
13652;DHT22;6899;51.546;6.912;2022-12-07T08:10:19;2.80;99.90
13652;DHT22;6899;51.546;6.912;2022-12-07T08:12:46;2.80;99.90
13652;DHT22;6899;51.546;6.912;2022-12-07T08:15:32;2.90;99.90
13652;DHT22;6899;51.546;6.912;2022-12-07T08:18:02;3.00;99.90
13652;DHT22;6899;51.546;6.912;2022-12-07T08:20:30;3.00;99.90
13652;DHT22;6899;51.546;6.912;2022-12-07T08:22:57;3.00;99.90
13652;DHT22;6899;51.546;6.912;2022-12-07T08:25:24;3.00;99.90
13652;DHT22;6899;51.546;6.912;2022-12-07T08:27:52;3.00;99.90
13652;DHT22;6899;51.546;6.912;2022-12-07T08:30:19;2.90;99.90
13652;DHT22;6899;51.546;6.912;2022-12-07T08:32:48;2.80;99.90
13652;DHT22;6899;51.546;6.912;2022-12-07T08:35:15;2.70;99.90
13652;DHT22;6899;51.546;6.912;2022-12-07T08:37:45;2.60;99.90
13652;DHT22;6899;51.546;6.912;2022-12-07T08:40:13;2.50;99.90
13652;DHT22;6899;51.546;6.912;2022-12-07T08:42:47;2.50;99.90
13652;DHT22;6899;51.546;6.912;2022-12-07T08:45:16;2.50;99.90
13652;DHT22;6899;51.546;6.912;2022-12-07T08:47:48;2.40;99.90
13652;DHT22;6899;51.546;6.912;2022-12-07T08:50:17;2.40;99.90
13652;DHT22;6899;51.546;6.912;2022-12-07T08:52:44;2.40;99.90
13652;DHT22;6899;51.546;6.912;2022-12-07T08:55:11;2.30;99.90
13652;DHT22;6899;51.546;6.912;2022-12-07T08:57:39;2.30;99.90
13652;DHT22;6899;51.546;6.912;2022-12-07T09:00:07;2.40;99.90
13652;DHT22;6899;51.546;6.912;2022-12-07T09:02:35;2.50;99.90
13652;DHT22;6899;51.546;6.912;2022-12-07T09:05:04;2.70;99.90
13652;DHT22;6899;51.546;6.912;2022-12-07T09:07:32;2.90;99.90
13652;DHT22;6899;51.546;6.912;2022-12-07T09:10:00;3.10;99.90
13652;DHT22;6899;51.546;6.912;2022-12-07T09:12:27;3.30;99.90
13652;DHT22;6899;51.546;6.912;2022-12-07T09:14:54;3.40;99.90
13652;DHT22;6899;51.546;6.912;2022-12-07T09:17:21;3.60;99.90
13652;DHT22;6899;51.546;6.912;2022-12-07T09:19:47;3.60;99.90
13652;DHT22;6899;51.546;6.912;2022-12-07T09:22:16;3.50;99.90
13652;DHT22;6899;51.546;6.912;2022-12-07T09:24:43;3.50;99.90
13652;DHT22;6899;51.546;6.912;2022-12-07T09:27:11;3.60;99.90
13652;DHT22;6899;51.546;6.912;2022-12-07T09:29:37;3.80;99.90
13652;DHT22;6899;51.546;6.912;2022-12-07T09:32:04;4.00;99.90
13652;DHT22;6899;51.546;6.912;2022-12-07T09:34:32;4.20;99.90
13652;DHT22;6899;51.546;6.912;2022-12-07T09:37:00;4.10;99.90
13652;DHT22;6899;51.546;6.912;2022-12-07T09:39:29;4.30;99.90
13652;DHT22;6899;51.546;6.912;2022-12-07T09:42:02;4.40;99.90
13652;DHT22;6899;51.546;6.912;2022-12-07T09:44:30;4.30;99.90
13652;DHT22;6899;51.546;6.912;2022-12-07T09:47:02;4.20;99.90
13652;DHT22;6899;51.546;6.912;2022-12-07T09:49:33;4.40;99.90
13652;DHT22;6899;51.546;6.912;2022-12-07T09:52:02;4.60;99.90
13652;DHT22;6899;51.546;6.912;2022-12-07T09:54:30;4.60;99.90
13652;DHT22;6899;51.546;6.912;2022-12-07T09:56:58;4.50;99.90
13652;DHT22;6899;51.546;6.912;2022-12-07T09:59:25;4.40;99.90
13652;DHT22;6899;51.546;6.912;2022-12-07T10:01:52;4.40;99.90
13652;DHT22;6899;51.546;6.912;2022-12-07T10:04:20;4.40;99.90
13652;DHT22;6899;51.546;6.912;2022-12-07T10:06:48;4.50;99.90
13652;DHT22;6899;51.546;6.912;2022-12-07T10:09:17;4.60;99.90
13652;DHT22;6899;51.546;6.912;2022-12-07T10:12:04;4.60;99.90
13652;DHT22;6899;51.546;6.912;2022-12-07T10:14:33;4.70;99.90
13652;DHT22;6899;51.546;6.912;2022-12-07T10:17:01;4.90;99.90
13652;DHT22;6899;51.546;6.912;2022-12-07T10:19:30;4.90;99.90
13652;DHT22;6899;51.546;6.912;2022-12-07T10:22:09;5.00;99.90
13652;DHT22;6899;51.546;6.912;2022-12-07T10:24:37;5.00;99.90
13652;DHT22;6899;51.546;6.912;2022-12-07T10:27:19;5.20;99.90
13652;DHT22;6899;51.546;6.912;2022-12-07T10:29:48;5.10;99.90
13652;DHT22;6899;51.546;6.912;2022-12-07T10:32:31;5.20;99.90
13652;DHT22;6899;51.546;6.912;2022-12-07T10:35:19;5.20;99.90
13652;DHT22;6899;51.546;6.912;2022-12-07T10:37:47;5.30;99.90
13652;DHT22;6899;51.546;6.912;2022-12-07T10:40:29;5.30;99.90
13652;DHT22;6899;51.546;6.912;2022-12-07T10:43:17;5.40;99.90
13652;DHT22;6899;51.546;6.912;2022-12-07T10:46:04;5.50;99.90
13652;DHT22;6899;51.546;6.912;2022-12-07T10:48:40;5.60;99.90
13652;DHT22;6899;51.546;6.912;2022-12-07T10:51:13;5.70;99.90
13652;DHT22;6899;51.546;6.912;2022-12-07T10:53:52;5.90;99.90
13652;DHT22;6899;51.546;6.912;2022-12-07T10:56:45;6.00;99.90
13652;DHT22;6899;51.546;6.912;2022-12-07T10:59:35;6.00;99.90
13652;DHT22;6899;51.546;6.912;2022-12-07T11:02:17;6.00;99.90
13652;DHT22;6899;51.546;6.912;2022-12-07T11:04:59;5.90;99.90
13652;DHT22;6899;51.546;6.912;2022-12-07T11:07:37;5.70;99.90
13652;DHT22;6899;51.546;6.912;2022-12-07T11:10:13;5.70;99.90
13652;DHT22;6899;51.546;6.912;2022-12-07T11:13:00;5.70;99.90
13652;DHT22;6899;51.546;6.912;2022-12-07T11:15:45;5.80;99.90
13652;DHT22;6899;51.546;6.912;2022-12-07T11:18:21;5.90;99.90
13652;DHT22;6899;51.546;6.912;2022-12-07T11:20:54;6.00;99.90
13652;DHT22;6899;51.546;6.912;2022-12-07T11:23:36;6.20;99.90
13652;DHT22;6899;51.546;6.912;2022-12-07T11:26:18;6.30;99.90
13652;DHT22;6899;51.546;6.912;2022-12-07T11:29:11;6.40;99.90
13652;DHT22;6899;51.546;6.912;2022-12-07T11:31:53;6.60;99.90
13652;DHT22;6899;51.546;6.912;2022-12-07T11:34:26;6.80;99.90
13652;DHT22;6899;51.546;6.912;2022-12-07T11:36:57;6.90;99.90
13652;DHT22;6899;51.546;6.912;2022-12-07T11:39:26;6.90;99.90
13652;DHT22;6899;51.546;6.912;2022-12-07T11:42:00;7.00;99.90
13652;DHT22;6899;51.546;6.912;2022-12-07T11:44:32;6.90;99.90
13652;DHT22;6899;51.546;6.912;2022-12-07T11:47:07;6.90;99.90
13652;DHT22;6899;51.546;6.912;2022-12-07T11:49:41;6.80;99.90
13652;DHT22;6899;51.546;6.912;2022-12-07T11:52:16;6.70;99.90
13652;DHT22;6899;51.546;6.912;2022-12-07T11:54:45;6.60;99.90
13652;DHT22;6899;51.546;6.912;2022-12-07T11:57:17;6.70;99.90
13652;DHT22;6899;51.546;6.912;2022-12-07T11:59:50;6.50;99.90
13652;DHT22;6899;51.546;6.912;2022-12-07T12:02:26;6.50;99.90
13652;DHT22;6899;51.546;6.912;2022-12-07T12:04:59;6.50;99.90
13652;DHT22;6899;51.546;6.912;2022-12-07T12:07:29;6.40;99.90
13652;DHT22;6899;51.546;6.912;2022-12-07T12:10:00;6.50;99.90
13652;DHT22;6899;51.546;6.912;2022-12-07T12:12:45;6.40;99.90
13652;DHT22;6899;51.546;6.912;2022-12-07T12:15:27;6.40;99.90
13652;DHT22;6899;51.546;6.912;2022-12-07T12:21:15;6.10;99.90
13652;DHT22;6899;51.546;6.912;2022-12-07T12:23:45;6.10;99.90
13652;DHT22;6899;51.546;6.912;2022-12-07T12:26:17;6.00;99.90
13652;DHT22;6899;51.546;6.912;2022-12-07T12:28:52;6.00;99.90
13652;DHT22;6899;51.546;6.912;2022-12-07T12:31:36;5.90;99.90
13652;DHT22;6899;51.546;6.912;2022-12-07T12:34:33;5.80;99.90
13652;DHT22;6899;51.546;6.912;2022-12-07T12:42:59;6.30;99.90
13652;DHT22;6899;51.546;6.912;2022-12-07T12:45:27;6.50;99.90
13652;DHT22;6899;51.546;6.912;2022-12-07T12:47:56;6.50;99.90
13652;DHT22;6899;51.546;6.912;2022-12-07T12:50:30;6.60;99.90
13652;DHT22;6899;51.546;6.912;2022-12-07T12:53:14;6.70;99.90
13652;DHT22;6899;51.546;6.912;2022-12-07T12:58:37;6.60;99.90
13652;DHT22;6899;51.546;6.912;2022-12-07T13:10:23;6.80;99.90
13652;DHT22;6899;51.546;6.912;2022-12-07T13:12:57;6.80;99.90
13652;DHT22;6899;51.546;6.912;2022-12-07T13:15:45;6.70;99.90
13652;DHT22;6899;51.546;6.912;2022-12-07T13:18:23;6.80;99.90
13652;DHT22;6899;51.546;6.912;2022-12-07T13:21:01;6.80;99.90
13652;DHT22;6899;51.546;6.912;2022-12-07T13:23:31;7.00;99.90
13652;DHT22;6899;51.546;6.912;2022-12-07T13:26:15;7.10;99.90
13652;DHT22;6899;51.546;6.912;2022-12-07T13:28:45;7.10;99.90
13652;DHT22;6899;51.546;6.912;2022-12-07T13:34:00;7.00;99.90
13652;DHT22;6899;51.546;6.912;2022-12-07T13:36:29;7.00;99.90
13652;DHT22;6899;51.546;6.912;2022-12-07T13:38:59;6.90;99.90
13652;DHT22;6899;51.546;6.912;2022-12-07T13:41:27;6.60;99.90
13652;DHT22;6899;51.546;6.912;2022-12-07T13:44:00;6.30;99.90
13652;DHT22;6899;51.546;6.912;2022-12-07T13:46:35;6.00;99.90
13652;DHT22;6899;51.546;6.912;2022-12-07T13:49:18;5.80;99.90
13652;DHT22;6899;51.546;6.912;2022-12-07T13:51:45;5.50;99.90
13652;DHT22;6899;51.546;6.912;2022-12-07T13:54:14;5.30;99.90
13652;DHT22;6899;51.546;6.912;2022-12-07T13:56:42;5.10;99.90
13652;DHT22;6899;51.546;6.912;2022-12-07T13:59:14;4.90;99.90
13652;DHT22;6899;51.546;6.912;2022-12-07T14:01:43;4.80;99.90
13652;DHT22;6899;51.546;6.912;2022-12-07T14:04:33;4.70;99.90
13652;DHT22;6899;51.546;6.912;2022-12-07T14:07:15;4.40;99.90
13652;DHT22;6899;51.546;6.912;2022-12-07T14:09:57;4.40;99.90
13652;DHT22;6899;51.546;6.912;2022-12-07T14:12:25;4.20;99.90
13652;DHT22;6899;51.546;6.912;2022-12-07T14:14:52;4.10;99.90
13652;DHT22;6899;51.546;6.912;2022-12-07T14:17:22;3.90;99.90
13652;DHT22;6899;51.546;6.912;2022-12-07T14:19:51;3.80;99.90
13652;DHT22;6899;51.546;6.912;2022-12-07T14:22:26;3.80;99.90
13652;DHT22;6899;51.546;6.912;2022-12-07T14:25:18;3.70;99.90
13652;DHT22;6899;51.546;6.912;2022-12-07T14:27:53;3.70;99.90
13652;DHT22;6899;51.546;6.912;2022-12-07T14:30:22;3.70;99.90
13652;DHT22;6899;51.546;6.912;2022-12-07T14:32:52;3.80;99.90
13652;DHT22;6899;51.546;6.912;2022-12-07T14:35:23;3.70;99.90
13652;DHT22;6899;51.546;6.912;2022-12-07T14:37:50;3.60;99.90
13652;DHT22;6899;51.546;6.912;2022-12-07T14:40:20;3.50;99.90
13652;DHT22;6899;51.546;6.912;2022-12-07T14:42:51;3.50;99.90
13652;DHT22;6899;51.546;6.912;2022-12-07T14:45:20;3.50;99.90
13652;DHT22;6899;51.546;6.912;2022-12-07T14:47:47;3.40;99.90
13652;DHT22;6899;51.546;6.912;2022-12-07T14:50:20;3.30;99.90
13652;DHT22;6899;51.546;6.912;2022-12-07T14:52:49;3.20;99.90
13652;DHT22;6899;51.546;6.912;2022-12-07T14:55:23;3.10;99.90
13652;DHT22;6899;51.546;6.912;2022-12-07T14:57:50;3.10;99.90
13652;DHT22;6899;51.546;6.912;2022-12-07T15:00:18;3.00;99.90
13652;DHT22;6899;51.546;6.912;2022-12-07T15:02:46;3.00;99.90
13652;DHT22;6899;51.546;6.912;2022-12-07T15:05:13;3.00;99.90
13652;DHT22;6899;51.546;6.912;2022-12-07T15:07:40;3.00;99.90
13652;DHT22;6899;51.546;6.912;2022-12-07T15:10:14;2.80;99.90
13652;DHT22;6899;51.546;6.912;2022-12-07T15:12:43;2.90;99.90
13652;DHT22;6899;51.546;6.912;2022-12-07T15:15:10;2.90;99.90
13652;DHT22;6899;51.546;6.912;2022-12-07T15:17:41;2.90;99.90
13652;DHT22;6899;51.546;6.912;2022-12-07T15:20:11;3.00;99.90
13652;DHT22;6899;51.546;6.912;2022-12-07T15:22:38;3.00;99.90
13652;DHT22;6899;51.546;6.912;2022-12-07T15:25:05;3.10;99.90
13652;DHT22;6899;51.546;6.912;2022-12-07T15:27:33;3.20;99.90
13652;DHT22;6899;51.546;6.912;2022-12-07T15:30:01;3.30;99.90
13652;DHT22;6899;51.546;6.912;2022-12-07T15:32:28;3.30;99.90
13652;DHT22;6899;51.546;6.912;2022-12-07T15:34:55;3.40;99.90
13652;DHT22;6899;51.546;6.912;2022-12-07T15:37:22;3.40;99.90
13652;DHT22;6899;51.546;6.912;2022-12-07T15:39:49;3.40;99.90
13652;DHT22;6899;51.546;6.912;2022-12-07T15:42:16;3.40;99.90
13652;DHT22;6899;51.546;6.912;2022-12-07T15:44:42;3.40;99.90
13652;DHT22;6899;51.546;6.912;2022-12-07T15:47:28;3.40;99.90
13652;DHT22;6899;51.546;6.912;2022-12-07T15:49:55;3.40;99.90
13652;DHT22;6899;51.546;6.912;2022-12-07T15:52:21;3.50;99.90
13652;DHT22;6899;51.546;6.912;2022-12-07T15:54:51;3.40;99.90
13652;DHT22;6899;51.546;6.912;2022-12-07T15:57:18;3.40;99.90
13652;DHT22;6899;51.546;6.912;2022-12-07T15:59:44;3.50;99.90
13652;DHT22;6899;51.546;6.912;2022-12-07T16:02:12;3.50;99.90
13652;DHT22;6899;51.546;6.912;2022-12-07T16:04:40;3.50;99.90
13652;DHT22;6899;51.546;6.912;2022-12-07T16:07:08;3.50;99.90
13652;DHT22;6899;51.546;6.912;2022-12-07T16:09:36;3.50;99.90
13652;DHT22;6899;51.546;6.912;2022-12-07T16:12:04;3.60;99.90
13652;DHT22;6899;51.546;6.912;2022-12-07T16:14:31;3.60;99.90
13652;DHT22;6899;51.546;6.912;2022-12-07T16:16:59;3.60;99.90
13652;DHT22;6899;51.546;6.912;2022-12-07T16:19:26;3.70;99.90
13652;DHT22;6899;51.546;6.912;2022-12-07T16:21:54;3.70;99.90
13652;DHT22;6899;51.546;6.912;2022-12-07T16:24:24;3.70;99.90
13652;DHT22;6899;51.546;6.912;2022-12-07T16:26:51;3.80;99.90
13652;DHT22;6899;51.546;6.912;2022-12-07T16:29:22;3.90;99.90
13652;DHT22;6899;51.546;6.912;2022-12-07T16:31:50;3.90;99.90
13652;DHT22;6899;51.546;6.912;2022-12-07T16:34:17;3.90;99.90
13652;DHT22;6899;51.546;6.912;2022-12-07T16:36:47;3.90;99.90
13652;DHT22;6899;51.546;6.912;2022-12-07T16:39:15;4.00;99.90
13652;DHT22;6899;51.546;6.912;2022-12-07T16:41:43;4.00;99.90
13652;DHT22;6899;51.546;6.912;2022-12-07T16:44:14;4.00;99.90
13652;DHT22;6899;51.546;6.912;2022-12-07T16:46:41;4.00;99.90
13652;DHT22;6899;51.546;6.912;2022-12-07T16:49:11;4.00;99.90
13652;DHT22;6899;51.546;6.912;2022-12-07T16:51:39;4.10;99.90